sensor_id;sensor_type;location;lat;lon;timestamp;P1;durP1;ratioP1;P2;durP2;ratioP2
19207;SDS011;9737;59.466;18.036;2023-02-23T00:01:53;12.38;;;6.22;;
19207;SDS011;9737;59.466;18.036;2023-02-23T00:04:22;12.90;;;6.85;;
19207;SDS011;9737;59.466;18.036;2023-02-23T00:06:51;13.80;;;6.75;;
19207;SDS011;9737;59.466;18.036;2023-02-23T00:09:19;14.32;;;7.20;;
19207;SDS011;9737;59.466;18.036;2023-02-23T00:11:50;12.80;;;6.18;;
19207;SDS011;9737;59.466;18.036;2023-02-23T00:14:19;13.50;;;7.05;;
19207;SDS011;9737;59.466;18.036;2023-02-23T00:16:48;15.65;;;7.55;;
19207;SDS011;9737;59.466;18.036;2023-02-23T00:19:18;11.93;;;6.97;;
19207;SDS011;9737;59.466;18.036;2023-02-23T00:21:46;11.85;;;6.68;;
19207;SDS011;9737;59.466;18.036;2023-02-23T00:24:14;15.07;;;6.53;;
19207;SDS011;9737;59.466;18.036;2023-02-23T00:26:44;15.98;;;7.13;;
19207;SDS011;9737;59.466;18.036;2023-02-23T00:29:14;11.93;;;7.03;;
19207;SDS011;9737;59.466;18.036;2023-02-23T00:31:43;12.90;;;6.82;;
19207;SDS011;9737;59.466;18.036;2023-02-23T00:34:12;16.70;;;6.75;;
19207;SDS011;9737;59.466;18.036;2023-02-23T00:36:43;12.82;;;5.90;;
19207;SDS011;9737;59.466;18.036;2023-02-23T00:39:11;13.02;;;6.45;;
19207;SDS011;9737;59.466;18.036;2023-02-23T00:41:44;10.27;;;5.68;;
19207;SDS011;9737;59.466;18.036;2023-02-23T00:44:12;9.80;;;5.40;;
19207;SDS011;9737;59.466;18.036;2023-02-23T00:46:41;11.55;;;5.97;;
19207;SDS011;9737;59.466;18.036;2023-02-23T00:49:10;10.88;;;6.00;;
19207;SDS011;9737;59.466;18.036;2023-02-23T00:51:39;12.25;;;6.03;;
19207;SDS011;9737;59.466;18.036;2023-02-23T00:54:10;13.82;;;5.97;;
19207;SDS011;9737;59.466;18.036;2023-02-23T00:56:39;10.00;;;5.80;;
19207;SDS011;9737;59.466;18.036;2023-02-23T00:59:08;10.43;;;5.70;;
19207;SDS011;9737;59.466;18.036;2023-02-23T01:01:37;10.75;;;5.60;;
19207;SDS011;9737;59.466;18.036;2023-02-23T01:04:07;12.23;;;5.78;;
19207;SDS011;9737;59.466;18.036;2023-02-23T01:06:36;9.25;;;5.35;;
19207;SDS011;9737;59.466;18.036;2023-02-23T01:09:05;9.63;;;5.53;;
19207;SDS011;9737;59.466;18.036;2023-02-23T01:11:37;8.68;;;5.13;;
19207;SDS011;9737;59.466;18.036;2023-02-23T01:14:07;10.30;;;5.50;;
19207;SDS011;9737;59.466;18.036;2023-02-23T01:16:36;9.32;;;5.30;;
19207;SDS011;9737;59.466;18.036;2023-02-23T01:19:05;8.45;;;4.97;;
19207;SDS011;9737;59.466;18.036;2023-02-23T01:21:34;10.57;;;5.15;;
19207;SDS011;9737;59.466;18.036;2023-02-23T01:24:03;9.80;;;4.60;;
19207;SDS011;9737;59.466;18.036;2023-02-23T01:26:33;8.77;;;4.75;;
19207;SDS011;9737;59.466;18.036;2023-02-23T01:29:04;8.05;;;4.85;;
19207;SDS011;9737;59.466;18.036;2023-02-23T01:31:37;9.40;;;4.95;;
19207;SDS011;9737;59.466;18.036;2023-02-23T01:34:08;8.13;;;4.25;;
19207;SDS011;9737;59.466;18.036;2023-02-23T01:36:37;10.60;;;4.53;;
19207;SDS011;9737;59.466;18.036;2023-02-23T01:39:09;7.80;;;4.63;;
19207;SDS011;9737;59.466;18.036;2023-02-23T01:41:39;8.50;;;4.20;;
19207;SDS011;9737;59.466;18.036;2023-02-23T01:47:13;7.10;;;4.40;;
19207;SDS011;9737;59.466;18.036;2023-02-23T01:49:42;7.47;;;4.57;;
19207;SDS011;9737;59.466;18.036;2023-02-23T01:52:11;7.90;;;4.57;;
19207;SDS011;9737;59.466;18.036;2023-02-23T01:54:42;6.85;;;4.03;;
19207;SDS011;9737;59.466;18.036;2023-02-23T01:57:25;6.72;;;4.13;;
19207;SDS011;9737;59.466;18.036;2023-02-23T01:59:53;7.47;;;4.10;;
19207;SDS011;9737;59.466;18.036;2023-02-23T02:02:23;9.35;;;4.55;;
19207;SDS011;9737;59.466;18.036;2023-02-23T02:07:30;9.35;;;4.38;;
19207;SDS011;9737;59.466;18.036;2023-02-23T02:10:00;7.22;;;4.30;;
19207;SDS011;9737;59.466;18.036;2023-02-23T02:12:48;7.15;;;4.50;;
19207;SDS011;9737;59.466;18.036;2023-02-23T02:15:18;6.68;;;4.32;;
19207;SDS011;9737;59.466;18.036;2023-02-23T02:17:50;9.80;;;4.75;;
19207;SDS011;9737;59.466;18.036;2023-02-23T02:20:32;9.63;;;4.55;;
19207;SDS011;9737;59.466;18.036;2023-02-23T02:23:29;7.55;;;4.15;;
19207;SDS011;9737;59.466;18.036;2023-02-23T02:26:18;10.52;;;4.90;;
19207;SDS011;9737;59.466;18.036;2023-02-23T02:32:05;7.05;;;4.32;;
19207;SDS011;9737;59.466;18.036;2023-02-23T02:38:11;8.65;;;4.78;;
19207;SDS011;9737;59.466;18.036;2023-02-23T02:40:51;8.88;;;5.32;;
19207;SDS011;9737;59.466;18.036;2023-02-23T02:43:30;9.90;;;4.68;;
19207;SDS011;9737;59.466;18.036;2023-02-23T02:46:07;9.15;;;4.97;;
19207;SDS011;9737;59.466;18.036;2023-02-23T02:48:43;8.25;;;4.75;;
19207;SDS011;9737;59.466;18.036;2023-02-23T02:51:18;8.75;;;4.80;;
19207;SDS011;9737;59.466;18.036;2023-02-23T02:53:54;9.15;;;4.88;;
19207;SDS011;9737;59.466;18.036;2023-02-23T02:56:35;11.18;;;4.90;;
19207;SDS011;9737;59.466;18.036;2023-02-23T02:59:09;9.38;;;4.78;;
19207;SDS011;9737;59.466;18.036;2023-02-23T03:01:57;7.50;;;4.65;;
19207;SDS011;9737;59.466;18.036;2023-02-23T03:04:43;7.80;;;5.05;;
19207;SDS011;9737;59.466;18.036;2023-02-23T03:07:30;14.93;;;5.07;;
19207;SDS011;9737;59.466;18.036;2023-02-23T03:10:23;8.77;;;5.07;;
19207;SDS011;9737;59.466;18.036;2023-02-23T03:13:16;8.75;;;5.35;;
19207;SDS011;9737;59.466;18.036;2023-02-23T03:16:14;9.50;;;4.93;;
19207;SDS011;9737;59.466;18.036;2023-02-23T03:19:09;9.60;;;5.03;;
19207;SDS011;9737;59.466;18.036;2023-02-23T03:22:03;9.85;;;5.10;;
19207;SDS011;9737;59.466;18.036;2023-02-23T03:24:56;8.98;;;4.95;;
19207;SDS011;9737;59.466;18.036;2023-02-23T03:27:49;8.73;;;5.03;;
19207;SDS011;9737;59.466;18.036;2023-02-23T03:30:39;11.07;;;4.47;;
19207;SDS011;9737;59.466;18.036;2023-02-23T03:33:35;8.50;;;4.93;;
19207;SDS011;9737;59.466;18.036;2023-02-23T03:36:28;9.73;;;5.22;;
19207;SDS011;9737;59.466;18.036;2023-02-23T03:39:20;8.05;;;4.40;;
19207;SDS011;9737;59.466;18.036;2023-02-23T03:42:10;8.27;;;4.80;;
19207;SDS011;9737;59.466;18.036;2023-02-23T03:45:04;8.63;;;4.70;;
19207;SDS011;9737;59.466;18.036;2023-02-23T03:47:53;8.57;;;4.70;;
19207;SDS011;9737;59.466;18.036;2023-02-23T03:50:43;8.35;;;4.80;;
19207;SDS011;9737;59.466;18.036;2023-02-23T03:53:36;7.55;;;4.75;;
19207;SDS011;9737;59.466;18.036;2023-02-23T03:56:28;7.28;;;4.13;;
19207;SDS011;9737;59.466;18.036;2023-02-23T03:59:19;7.93;;;4.35;;
19207;SDS011;9737;59.466;18.036;2023-02-23T04:02:10;9.38;;;4.43;;
19207;SDS011;9737;59.466;18.036;2023-02-23T04:05:02;9.23;;;4.43;;
19207;SDS011;9737;59.466;18.036;2023-02-23T04:07:51;11.45;;;4.68;;
19207;SDS011;9737;59.466;18.036;2023-02-23T04:10:40;7.88;;;4.60;;
19207;SDS011;9737;59.466;18.036;2023-02-23T04:13:32;6.15;;;3.88;;
19207;SDS011;9737;59.466;18.036;2023-02-23T04:16:04;7.40;;;4.35;;
19207;SDS011;9737;59.466;18.036;2023-02-23T04:18:37;7.47;;;4.50;;
19207;SDS011;9737;59.466;18.036;2023-02-23T04:21:05;10.38;;;4.47;;
19207;SDS011;9737;59.466;18.036;2023-02-23T04:23:34;6.82;;;3.83;;
19207;SDS011;9737;59.466;18.036;2023-02-23T04:26:06;6.88;;;4.20;;
19207;SDS011;9737;59.466;18.036;2023-02-23T04:28:33;6.75;;;4.38;;
19207;SDS011;9737;59.466;18.036;2023-02-23T04:31:01;7.90;;;4.78;;
19207;SDS011;9737;59.466;18.036;2023-02-23T04:33:29;6.97;;;4.20;;
19207;SDS011;9737;59.466;18.036;2023-02-23T04:35:58;7.55;;;4.25;;
19207;SDS011;9737;59.466;18.036;2023-02-23T04:38:26;9.48;;;4.55;;
19207;SDS011;9737;59.466;18.036;2023-02-23T04:40:54;8.50;;;4.43;;
19207;SDS011;9737;59.466;18.036;2023-02-23T04:43:22;7.13;;;4.10;;
19207;SDS011;9737;59.466;18.036;2023-02-23T04:45:50;9.38;;;4.45;;
19207;SDS011;9737;59.466;18.036;2023-02-23T04:48:18;7.93;;;4.20;;
19207;SDS011;9737;59.466;18.036;2023-02-23T04:50:46;9.85;;;4.20;;
19207;SDS011;9737;59.466;18.036;2023-02-23T04:53:19;10.43;;;4.93;;
19207;SDS011;9737;59.466;18.036;2023-02-23T04:55:48;7.10;;;4.45;;
19207;SDS011;9737;59.466;18.036;2023-02-23T04:58:16;8.75;;;5.10;;
19207;SDS011;9737;59.466;18.036;2023-02-23T05:00:43;8.38;;;4.25;;
19207;SDS011;9737;59.466;18.036;2023-02-23T05:03:12;7.93;;;4.25;;
19207;SDS011;9737;59.466;18.036;2023-02-23T05:05:40;7.35;;;3.85;;
19207;SDS011;9737;59.466;18.036;2023-02-23T05:08:07;5.57;;;3.75;;
19207;SDS011;9737;59.466;18.036;2023-02-23T05:10:37;6.55;;;4.00;;
19207;SDS011;9737;59.466;18.036;2023-02-23T05:13:05;7.43;;;4.07;;
19207;SDS011;9737;59.466;18.036;2023-02-23T05:15:33;7.10;;;4.32;;
19207;SDS011;9737;59.466;18.036;2023-02-23T05:18:02;8.80;;;4.30;;
19207;SDS011;9737;59.466;18.036;2023-02-23T05:20:30;8.52;;;4.28;;
19207;SDS011;9737;59.466;18.036;2023-02-23T05:22:58;10.60;;;4.30;;
19207;SDS011;9737;59.466;18.036;2023-02-23T05:25:26;15.00;;;4.47;;
19207;SDS011;9737;59.466;18.036;2023-02-23T05:27:55;6.72;;;4.03;;
19207;SDS011;9737;59.466;18.036;2023-02-23T05:30:23;7.65;;;4.20;;
19207;SDS011;9737;59.466;18.036;2023-02-23T05:32:50;6.78;;;4.25;;
19207;SDS011;9737;59.466;18.036;2023-02-23T05:35:18;6.70;;;4.28;;
19207;SDS011;9737;59.466;18.036;2023-02-23T05:37:46;6.75;;;3.58;;
19207;SDS011;9737;59.466;18.036;2023-02-23T05:40:14;11.85;;;4.93;;
19207;SDS011;9737;59.466;18.036;2023-02-23T05:42:42;9.88;;;4.38;;
19207;SDS011;9737;59.466;18.036;2023-02-23T05:45:11;7.68;;;4.60;;
19207;SDS011;9737;59.466;18.036;2023-02-23T05:47:39;6.65;;;4.22;;
19207;SDS011;9737;59.466;18.036;2023-02-23T05:50:08;8.15;;;4.65;;
19207;SDS011;9737;59.466;18.036;2023-02-23T05:52:38;8.93;;;4.35;;
19207;SDS011;9737;59.466;18.036;2023-02-23T05:55:07;6.68;;;4.35;;
19207;SDS011;9737;59.466;18.036;2023-02-23T05:57:36;9.82;;;5.30;;
19207;SDS011;9737;59.466;18.036;2023-02-23T06:00:05;10.95;;;4.63;;
19207;SDS011;9737;59.466;18.036;2023-02-23T06:02:35;7.47;;;4.55;;
19207;SDS011;9737;59.466;18.036;2023-02-23T06:05:04;8.10;;;4.35;;
19207;SDS011;9737;59.466;18.036;2023-02-23T06:07:32;9.40;;;4.95;;
19207;SDS011;9737;59.466;18.036;2023-02-23T06:10:00;8.10;;;4.07;;
19207;SDS011;9737;59.466;18.036;2023-02-23T06:12:27;8.63;;;4.95;;
19207;SDS011;9737;59.466;18.036;2023-02-23T06:14:56;10.00;;;4.65;;
19207;SDS011;9737;59.466;18.036;2023-02-23T06:17:23;10.35;;;5.60;;
19207;SDS011;9737;59.466;18.036;2023-02-23T06:19:53;13.20;;;5.45;;
19207;SDS011;9737;59.466;18.036;2023-02-23T06:22:21;11.43;;;5.68;;
19207;SDS011;9737;59.466;18.036;2023-02-23T06:24:49;9.23;;;5.03;;
19207;SDS011;9737;59.466;18.036;2023-02-23T06:27:16;15.07;;;5.90;;
19207;SDS011;9737;59.466;18.036;2023-02-23T06:29:44;12.35;;;5.38;;
19207;SDS011;9737;59.466;18.036;2023-02-23T06:32:12;11.20;;;5.10;;
19207;SDS011;9737;59.466;18.036;2023-02-23T06:34:40;9.05;;;4.63;;
19207;SDS011;9737;59.466;18.036;2023-02-23T06:37:11;10.43;;;5.15;;
19207;SDS011;9737;59.466;18.036;2023-02-23T06:39:39;7.90;;;4.57;;
19207;SDS011;9737;59.466;18.036;2023-02-23T06:42:07;10.23;;;5.03;;
19207;SDS011;9737;59.466;18.036;2023-02-23T06:44:34;9.25;;;4.88;;
19207;SDS011;9737;59.466;18.036;2023-02-23T06:47:03;10.15;;;5.22;;
19207;SDS011;9737;59.466;18.036;2023-02-23T06:49:32;11.95;;;5.43;;
19207;SDS011;9737;59.466;18.036;2023-02-23T06:51:59;10.55;;;5.32;;
19207;SDS011;9737;59.466;18.036;2023-02-23T06:54:30;8.85;;;4.35;;
19207;SDS011;9737;59.466;18.036;2023-02-23T06:57:02;9.45;;;5.13;;
19207;SDS011;9737;59.466;18.036;2023-02-23T06:59:33;9.65;;;4.22;;
19207;SDS011;9737;59.466;18.036;2023-02-23T07:02:02;7.70;;;4.18;;
19207;SDS011;9737;59.466;18.036;2023-02-23T07:04:31;12.18;;;5.25;;
19207;SDS011;9737;59.466;18.036;2023-02-23T07:07:01;7.68;;;4.57;;
19207;SDS011;9737;59.466;18.036;2023-02-23T07:09:33;8.57;;;4.53;;
19207;SDS011;9737;59.466;18.036;2023-02-23T07:12:01;8.27;;;4.82;;
19207;SDS011;9737;59.466;18.036;2023-02-23T07:14:29;7.32;;;4.15;;
19207;SDS011;9737;59.466;18.036;2023-02-23T07:16:58;8.30;;;4.72;;
19207;SDS011;9737;59.466;18.036;2023-02-23T07:19:26;8.40;;;4.55;;
19207;SDS011;9737;59.466;18.036;2023-02-23T07:21:54;8.57;;;4.57;;
19207;SDS011;9737;59.466;18.036;2023-02-23T07:24:22;9.57;;;5.35;;
19207;SDS011;9737;59.466;18.036;2023-02-23T07:26:51;8.90;;;4.82;;
19207;SDS011;9737;59.466;18.036;2023-02-23T07:29:19;7.82;;;4.88;;
19207;SDS011;9737;59.466;18.036;2023-02-23T07:31:49;8.40;;;4.75;;
19207;SDS011;9737;59.466;18.036;2023-02-23T07:34:17;8.10;;;4.70;;
19207;SDS011;9737;59.466;18.036;2023-02-23T07:36:45;9.80;;;4.90;;
19207;SDS011;9737;59.466;18.036;2023-02-23T07:39:12;8.25;;;4.80;;
19207;SDS011;9737;59.466;18.036;2023-02-23T07:41:40;9.00;;;4.43;;
19207;SDS011;9737;59.466;18.036;2023-02-23T07:44:09;9.75;;;5.13;;
19207;SDS011;9737;59.466;18.036;2023-02-23T07:46:37;9.15;;;4.63;;
19207;SDS011;9737;59.466;18.036;2023-02-23T07:49:05;7.00;;;4.68;;
19207;SDS011;9737;59.466;18.036;2023-02-23T07:51:33;8.43;;;5.07;;
19207;SDS011;9737;59.466;18.036;2023-02-23T07:54:01;8.02;;;4.43;;
19207;SDS011;9737;59.466;18.036;2023-02-23T07:56:30;8.80;;;4.50;;
19207;SDS011;9737;59.466;18.036;2023-02-23T07:58:59;8.18;;;4.45;;
19207;SDS011;9737;59.466;18.036;2023-02-23T08:01:29;8.27;;;4.72;;
19207;SDS011;9737;59.466;18.036;2023-02-23T08:03:57;8.63;;;4.15;;
19207;SDS011;9737;59.466;18.036;2023-02-23T08:06:25;6.93;;;4.32;;
19207;SDS011;9737;59.466;18.036;2023-02-23T08:08:53;7.50;;;4.32;;
19207;SDS011;9737;59.466;18.036;2023-02-23T08:11:21;8.65;;;4.40;;
19207;SDS011;9737;59.466;18.036;2023-02-23T08:13:48;5.72;;;4.00;;
19207;SDS011;9737;59.466;18.036;2023-02-23T08:16:16;7.22;;;4.00;;
19207;SDS011;9737;59.466;18.036;2023-02-23T08:18:46;6.40;;;3.80;;
19207;SDS011;9737;59.466;18.036;2023-02-23T08:21:14;7.10;;;4.07;;
19207;SDS011;9737;59.466;18.036;2023-02-23T08:23:41;7.55;;;4.18;;
19207;SDS011;9737;59.466;18.036;2023-02-23T08:26:10;6.78;;;3.83;;
19207;SDS011;9737;59.466;18.036;2023-02-23T08:28:37;7.35;;;4.03;;
19207;SDS011;9737;59.466;18.036;2023-02-23T08:31:07;5.88;;;3.88;;
19207;SDS011;9737;59.466;18.036;2023-02-23T08:33:36;8.73;;;4.05;;
19207;SDS011;9737;59.466;18.036;2023-02-23T08:36:06;6.20;;;3.50;;
19207;SDS011;9737;59.466;18.036;2023-02-23T08:38:34;8.63;;;4.13;;
19207;SDS011;9737;59.466;18.036;2023-02-23T08:41:03;7.10;;;3.95;;
19207;SDS011;9737;59.466;18.036;2023-02-23T08:43:31;6.18;;;3.83;;
19207;SDS011;9737;59.466;18.036;2023-02-23T08:45:59;5.55;;;3.58;;
19207;SDS011;9737;59.466;18.036;2023-02-23T08:48:27;7.97;;;3.60;;
19207;SDS011;9737;59.466;18.036;2023-02-23T08:50:55;6.18;;;3.70;;
19207;SDS011;9737;59.466;18.036;2023-02-23T08:53:25;11.23;;;4.43;;
19207;SDS011;9737;59.466;18.036;2023-02-23T08:55:56;6.28;;;4.10;;
19207;SDS011;9737;59.466;18.036;2023-02-23T08:58:24;5.22;;;3.55;;
19207;SDS011;9737;59.466;18.036;2023-02-23T09:00:52;9.30;;;3.92;;
19207;SDS011;9737;59.466;18.036;2023-02-23T09:03:20;5.25;;;3.20;;
19207;SDS011;9737;59.466;18.036;2023-02-23T09:05:49;9.75;;;4.18;;
19207;SDS011;9737;59.466;18.036;2023-02-23T09:08:17;5.88;;;3.50;;
19207;SDS011;9737;59.466;18.036;2023-02-23T09:10:46;5.40;;;3.50;;
19207;SDS011;9737;59.466;18.036;2023-02-23T09:13:14;6.00;;;4.10;;
19207;SDS011;9737;59.466;18.036;2023-02-23T09:15:42;7.60;;;3.85;;
19207;SDS011;9737;59.466;18.036;2023-02-23T09:18:10;5.70;;;4.03;;
19207;SDS011;9737;59.466;18.036;2023-02-23T09:20:40;6.65;;;3.90;;
19207;SDS011;9737;59.466;18.036;2023-02-23T09:23:09;5.25;;;3.75;;
19207;SDS011;9737;59.466;18.036;2023-02-23T09:25:40;6.72;;;3.63;;
19207;SDS011;9737;59.466;18.036;2023-02-23T09:28:11;5.32;;;3.50;;
19207;SDS011;9737;59.466;18.036;2023-02-23T09:30:40;6.45;;;3.35;;
19207;SDS011;9737;59.466;18.036;2023-02-23T09:33:09;6.07;;;3.40;;
19207;SDS011;9737;59.466;18.036;2023-02-23T09:35:38;5.07;;;3.60;;
19207;SDS011;9737;59.466;18.036;2023-02-23T09:38:06;4.80;;;3.80;;
19207;SDS011;9737;59.466;18.036;2023-02-23T09:40:36;5.15;;;3.85;;
19207;SDS011;9737;59.466;18.036;2023-02-23T09:43:13;6.32;;;3.65;;
19207;SDS011;9737;59.466;18.036;2023-02-23T09:45:48;6.63;;;4.03;;
19207;SDS011;9737;59.466;18.036;2023-02-23T09:48:20;4.28;;;3.50;;
19207;SDS011;9737;59.466;18.036;2023-02-23T09:50:50;5.63;;;3.70;;
19207;SDS011;9737;59.466;18.036;2023-02-23T09:53:25;5.45;;;3.70;;
19207;SDS011;9737;59.466;18.036;2023-02-23T09:56:01;6.20;;;4.00;;
19207;SDS011;9737;59.466;18.036;2023-02-23T09:58:35;7.65;;;4.70;;
19207;SDS011;9737;59.466;18.036;2023-02-23T10:04:15;6.78;;;3.97;;
19207;SDS011;9737;59.466;18.036;2023-02-23T10:06:49;8.55;;;3.85;;
19207;SDS011;9737;59.466;18.036;2023-02-23T10:09:26;8.20;;;4.47;;
19207;SDS011;9737;59.466;18.036;2023-02-23T10:12:06;7.60;;;4.20;;
19207;SDS011;9737;59.466;18.036;2023-02-23T10:17:47;6.15;;;4.07;;
19207;SDS011;9737;59.466;18.036;2023-02-23T10:20:30;6.68;;;4.32;;
19207;SDS011;9737;59.466;18.036;2023-02-23T10:23:07;6.20;;;3.88;;
19207;SDS011;9737;59.466;18.036;2023-02-23T10:25:40;6.45;;;4.13;;
19207;SDS011;9737;59.466;18.036;2023-02-23T10:28:12;6.47;;;4.38;;
19207;SDS011;9737;59.466;18.036;2023-02-23T10:30:44;7.68;;;3.92;;
19207;SDS011;9737;59.466;18.036;2023-02-23T10:33:12;7.95;;;4.20;;
19207;SDS011;9737;59.466;18.036;2023-02-23T10:35:43;7.57;;;3.80;;
19207;SDS011;9737;59.466;18.036;2023-02-23T10:38:13;6.80;;;4.28;;
19207;SDS011;9737;59.466;18.036;2023-02-23T10:40:44;7.72;;;4.40;;
19207;SDS011;9737;59.466;18.036;2023-02-23T10:43:16;7.53;;;4.03;;
19207;SDS011;9737;59.466;18.036;2023-02-23T10:45:46;8.48;;;4.78;;
19207;SDS011;9737;59.466;18.036;2023-02-23T10:48:15;6.70;;;4.38;;
19207;SDS011;9737;59.466;18.036;2023-02-23T10:50:46;8.57;;;4.43;;
19207;SDS011;9737;59.466;18.036;2023-02-23T10:53:17;8.48;;;4.68;;
19207;SDS011;9737;59.466;18.036;2023-02-23T10:55:59;11.75;;;4.50;;
19207;SDS011;9737;59.466;18.036;2023-02-23T10:58:29;7.43;;;4.45;;
19207;SDS011;9737;59.466;18.036;2023-02-23T11:00:59;8.70;;;4.30;;
19207;SDS011;9737;59.466;18.036;2023-02-23T11:03:31;9.27;;;4.70;;
19207;SDS011;9737;59.466;18.036;2023-02-23T11:06:02;9.80;;;5.50;;
19207;SDS011;9737;59.466;18.036;2023-02-23T11:08:31;17.05;;;5.60;;
19207;SDS011;9737;59.466;18.036;2023-02-23T11:11:01;15.52;;;5.60;;
19207;SDS011;9737;59.466;18.036;2023-02-23T11:13:46;7.53;;;4.82;;
19207;SDS011;9737;59.466;18.036;2023-02-23T11:16:18;7.57;;;4.43;;
19207;SDS011;9737;59.466;18.036;2023-02-23T11:18:49;6.65;;;3.95;;
19207;SDS011;9737;59.466;18.036;2023-02-23T11:21:24;7.82;;;4.13;;
19207;SDS011;9737;59.466;18.036;2023-02-23T11:23:55;5.18;;;3.95;;
19207;SDS011;9737;59.466;18.036;2023-02-23T11:26:28;7.70;;;4.60;;
19207;SDS011;9737;59.466;18.036;2023-02-23T11:29:03;9.52;;;5.00;;
19207;SDS011;9737;59.466;18.036;2023-02-23T11:31:44;11.20;;;4.85;;
19207;SDS011;9737;59.466;18.036;2023-02-23T11:34:20;8.32;;;5.22;;
19207;SDS011;9737;59.466;18.036;2023-02-23T11:36:59;6.97;;;4.78;;
19207;SDS011;9737;59.466;18.036;2023-02-23T11:39:28;7.07;;;4.70;;
19207;SDS011;9737;59.466;18.036;2023-02-23T11:42:03;6.35;;;4.28;;
19207;SDS011;9737;59.466;18.036;2023-02-23T11:44:40;9.98;;;5.13;;
19207;SDS011;9737;59.466;18.036;2023-02-23T11:47:14;11.65;;;4.90;;
19207;SDS011;9737;59.466;18.036;2023-02-23T11:49:45;8.07;;;5.05;;
19207;SDS011;9737;59.466;18.036;2023-02-23T11:52:15;7.78;;;4.85;;
19207;SDS011;9737;59.466;18.036;2023-02-23T11:54:48;9.02;;;4.90;;
19207;SDS011;9737;59.466;18.036;2023-02-23T11:57:22;7.85;;;4.75;;
19207;SDS011;9737;59.466;18.036;2023-02-23T11:59:52;5.70;;;4.30;;
19207;SDS011;9737;59.466;18.036;2023-02-23T12:02:22;6.35;;;4.40;;
19207;SDS011;9737;59.466;18.036;2023-02-23T12:04:53;8.88;;;4.95;;
19207;SDS011;9737;59.466;18.036;2023-02-23T12:07:33;8.25;;;4.75;;
19207;SDS011;9737;59.466;18.036;2023-02-23T12:10:17;7.47;;;4.85;;
19207;SDS011;9737;59.466;18.036;2023-02-23T12:12:51;7.00;;;4.65;;
19207;SDS011;9737;59.466;18.036;2023-02-23T12:15:30;8.05;;;5.20;;
19207;SDS011;9737;59.466;18.036;2023-02-23T12:18:10;8.65;;;5.57;;
19207;SDS011;9737;59.466;18.036;2023-02-23T12:20:45;8.13;;;5.20;;
19207;SDS011;9737;59.466;18.036;2023-02-23T12:23:20;8.50;;;4.60;;
19207;SDS011;9737;59.466;18.036;2023-02-23T12:25:54;8.48;;;5.00;;
19207;SDS011;9737;59.466;18.036;2023-02-23T12:28:26;6.95;;;4.63;;
19207;SDS011;9737;59.466;18.036;2023-02-23T12:31:00;7.22;;;5.15;;
19207;SDS011;9737;59.466;18.036;2023-02-23T12:33:35;8.13;;;5.05;;
19207;SDS011;9737;59.466;18.036;2023-02-23T12:36:11;8.80;;;4.72;;
19207;SDS011;9737;59.466;18.036;2023-02-23T12:38:47;9.02;;;4.90;;
19207;SDS011;9737;59.466;18.036;2023-02-23T12:41:19;6.70;;;4.70;;
19207;SDS011;9737;59.466;18.036;2023-02-23T12:43:58;7.43;;;5.13;;
19207;SDS011;9737;59.466;18.036;2023-02-23T12:46:33;7.28;;;5.00;;
19207;SDS011;9737;59.466;18.036;2023-02-23T12:49:10;8.63;;;5.40;;
19207;SDS011;9737;59.466;18.036;2023-02-23T12:51:43;10.10;;;4.80;;
19207;SDS011;9737;59.466;18.036;2023-02-23T12:54:17;10.00;;;5.25;;
19207;SDS011;9737;59.466;18.036;2023-02-23T12:56:48;6.93;;;5.03;;
19207;SDS011;9737;59.466;18.036;2023-02-23T13:02:17;9.50;;;4.90;;
19207;SDS011;9737;59.466;18.036;2023-02-23T13:05:11;8.07;;;5.03;;
19207;SDS011;9737;59.466;18.036;2023-02-23T13:07:50;10.27;;;5.10;;
19207;SDS011;9737;59.466;18.036;2023-02-23T13:10:41;8.35;;;5.53;;
19207;SDS011;9737;59.466;18.036;2023-02-23T13:13:21;7.65;;;5.10;;
19207;SDS011;9737;59.466;18.036;2023-02-23T13:15:58;8.50;;;5.47;;
19207;SDS011;9737;59.466;18.036;2023-02-23T13:18:33;9.15;;;5.10;;
19207;SDS011;9737;59.466;18.036;2023-02-23T13:21:10;10.35;;;5.47;;
19207;SDS011;9737;59.466;18.036;2023-02-23T13:23:45;8.43;;;5.75;;
19207;SDS011;9737;59.466;18.036;2023-02-23T13:26:25;8.23;;;5.25;;
19207;SDS011;9737;59.466;18.036;2023-02-23T13:29:01;8.27;;;5.10;;
19207;SDS011;9737;59.466;18.036;2023-02-23T13:31:33;8.50;;;5.28;;
19207;SDS011;9737;59.466;18.036;2023-02-23T13:34:04;9.77;;;5.72;;
19207;SDS011;9737;59.466;18.036;2023-02-23T13:36:37;8.10;;;5.35;;
19207;SDS011;9737;59.466;18.036;2023-02-23T13:39:14;8.50;;;5.60;;
19207;SDS011;9737;59.466;18.036;2023-02-23T13:41:59;8.38;;;5.35;;
19207;SDS011;9737;59.466;18.036;2023-02-23T13:44:36;10.35;;;6.15;;
19207;SDS011;9737;59.466;18.036;2023-02-23T13:47:09;8.95;;;5.93;;
19207;SDS011;9737;59.466;18.036;2023-02-23T13:49:49;8.35;;;5.72;;
19207;SDS011;9737;59.466;18.036;2023-02-23T13:52:27;9.73;;;6.30;;
19207;SDS011;9737;59.466;18.036;2023-02-23T13:54:58;9.95;;;6.10;;
19207;SDS011;9737;59.466;18.036;2023-02-23T13:57:30;10.82;;;5.93;;
19207;SDS011;9737;59.466;18.036;2023-02-23T13:59:59;13.52;;;6.70;;
19207;SDS011;9737;59.466;18.036;2023-02-23T14:02:32;9.52;;;6.40;;
19207;SDS011;9737;59.466;18.036;2023-02-23T14:05:14;11.45;;;6.13;;
19207;SDS011;9737;59.466;18.036;2023-02-23T14:07:50;10.85;;;6.00;;
19207;SDS011;9737;59.466;18.036;2023-02-23T14:10:22;9.63;;;5.95;;
19207;SDS011;9737;59.466;18.036;2023-02-23T14:13:03;9.70;;;5.85;;
19207;SDS011;9737;59.466;18.036;2023-02-23T14:15:44;9.70;;;6.10;;
19207;SDS011;9737;59.466;18.036;2023-02-23T14:18:27;9.80;;;6.47;;
19207;SDS011;9737;59.466;18.036;2023-02-23T14:21:00;12.88;;;6.82;;
19207;SDS011;9737;59.466;18.036;2023-02-23T14:23:47;15.23;;;8.15;;
19207;SDS011;9737;59.466;18.036;2023-02-23T14:34:57;10.43;;;5.82;;
19207;SDS011;9737;59.466;18.036;2023-02-23T14:37:27;10.10;;;5.03;;
19207;SDS011;9737;59.466;18.036;2023-02-23T14:40:09;8.32;;;4.90;;
19207;SDS011;9737;59.466;18.036;2023-02-23T14:42:41;10.10;;;4.88;;
19207;SDS011;9737;59.466;18.036;2023-02-23T14:45:17;7.18;;;4.47;;
19207;SDS011;9737;59.466;18.036;2023-02-23T14:47:46;7.68;;;4.60;;
19207;SDS011;9737;59.466;18.036;2023-02-23T14:50:23;8.15;;;4.80;;
19207;SDS011;9737;59.466;18.036;2023-02-23T14:52:53;7.45;;;5.03;;
19207;SDS011;9737;59.466;18.036;2023-02-23T14:55:24;7.30;;;4.90;;
19207;SDS011;9737;59.466;18.036;2023-02-23T14:57:54;7.40;;;4.30;;
19207;SDS011;9737;59.466;18.036;2023-02-23T15:00:25;8.00;;;5.07;;
19207;SDS011;9737;59.466;18.036;2023-02-23T15:02:58;10.25;;;5.70;;
19207;SDS011;9737;59.466;18.036;2023-02-23T15:05:28;6.57;;;4.57;;
19207;SDS011;9737;59.466;18.036;2023-02-23T15:07:58;9.23;;;5.82;;
19207;SDS011;9737;59.466;18.036;2023-02-23T15:10:30;8.85;;;5.65;;
19207;SDS011;9737;59.466;18.036;2023-02-23T15:13:00;8.93;;;5.30;;
19207;SDS011;9737;59.466;18.036;2023-02-23T15:15:35;8.70;;;4.97;;
19207;SDS011;9737;59.466;18.036;2023-02-23T15:18:13;9.95;;;5.25;;
19207;SDS011;9737;59.466;18.036;2023-02-23T15:20:47;10.70;;;6.57;;
19207;SDS011;9737;59.466;18.036;2023-02-23T15:23:16;19.67;;;10.18;;
19207;SDS011;9737;59.466;18.036;2023-02-23T15:25:47;22.23;;;11.75;;
19207;SDS011;9737;59.466;18.036;2023-02-23T15:28:20;9.98;;;5.90;;
19207;SDS011;9737;59.466;18.036;2023-02-23T15:30:51;7.90;;;5.03;;
19207;SDS011;9737;59.466;18.036;2023-02-23T15:33:20;9.63;;;5.28;;
19207;SDS011;9737;59.466;18.036;2023-02-23T15:35:55;7.47;;;5.05;;
19207;SDS011;9737;59.466;18.036;2023-02-23T15:38:34;9.35;;;4.85;;
19207;SDS011;9737;59.466;18.036;2023-02-23T15:41:14;12.70;;;5.85;;
19207;SDS011;9737;59.466;18.036;2023-02-23T15:43:48;14.15;;;6.65;;
19207;SDS011;9737;59.466;18.036;2023-02-23T15:46:19;11.00;;;5.82;;
19207;SDS011;9737;59.466;18.036;2023-02-23T15:48:51;11.05;;;5.15;;
19207;SDS011;9737;59.466;18.036;2023-02-23T15:51:23;12.82;;;5.38;;